sensor_id;sensor_type;location;lat;lon;timestamp;P1;durP1;ratioP1;P2;durP2;ratioP2
40695;SDS011;40425;51.102;17.208;2023-03-14T00:03:28;6.97;;;4.03;;
40695;SDS011;40425;51.102;17.208;2023-03-14T00:08:29;7.07;;;3.47;;
40695;SDS011;40425;51.102;17.208;2023-03-14T00:13:30;6.87;;;3.87;;
40695;SDS011;40425;51.102;17.208;2023-03-14T00:18:31;7.63;;;4.10;;
40695;SDS011;40425;51.102;17.208;2023-03-14T00:23:33;8.20;;;3.93;;
40695;SDS011;40425;51.102;17.208;2023-03-14T00:28:35;6.80;;;4.03;;
40695;SDS011;40425;51.102;17.208;2023-03-14T00:33:36;10.77;;;4.03;;
40695;SDS011;40425;51.102;17.208;2023-03-14T00:38:38;8.43;;;3.83;;
40695;SDS011;40425;51.102;17.208;2023-03-14T00:43:40;8.60;;;4.20;;
40695;SDS011;40425;51.102;17.208;2023-03-14T00:48:41;9.02;;;4.72;;
40695;SDS011;40425;51.102;17.208;2023-03-14T00:53:44;13.03;;;4.07;;
40695;SDS011;40425;51.102;17.208;2023-03-14T00:58:45;10.13;;;4.43;;
40695;SDS011;40425;51.102;17.208;2023-03-14T01:03:46;12.33;;;6.63;;
40695;SDS011;40425;51.102;17.208;2023-03-14T01:08:46;14.40;;;6.07;;
40695;SDS011;40425;51.102;17.208;2023-03-14T01:13:48;11.73;;;5.47;;
40695;SDS011;40425;51.102;17.208;2023-03-14T01:18:49;9.13;;;4.90;;
40695;SDS011;40425;51.102;17.208;2023-03-14T01:23:50;15.63;;;8.43;;
40695;SDS011;40425;51.102;17.208;2023-03-14T01:28:53;12.73;;;7.80;;
40695;SDS011;40425;51.102;17.208;2023-03-14T01:33:55;12.82;;;7.20;;
40695;SDS011;40425;51.102;17.208;2023-03-14T01:38:56;12.68;;;6.70;;
40695;SDS011;40425;51.102;17.208;2023-03-14T01:43:57;12.97;;;5.90;;
40695;SDS011;40425;51.102;17.208;2023-03-14T01:54:09;14.30;;;6.07;;
40695;SDS011;40425;51.102;17.208;2023-03-14T01:59:13;17.27;;;7.50;;
40695;SDS011;40425;51.102;17.208;2023-03-14T02:04:14;11.97;;;6.17;;
40695;SDS011;40425;51.102;17.208;2023-03-14T02:09:18;18.70;;;7.43;;
40695;SDS011;40425;51.102;17.208;2023-03-14T02:14:22;16.27;;;7.75;;
40695;SDS011;40425;51.102;17.208;2023-03-14T02:19:50;20.40;;;7.93;;
40695;SDS011;40425;51.102;17.208;2023-03-14T02:25:15;19.83;;;7.68;;
40695;SDS011;40425;51.102;17.208;2023-03-14T02:30:27;18.17;;;6.70;;
40695;SDS011;40425;51.102;17.208;2023-03-14T02:35:37;9.70;;;3.78;;
40695;SDS011;40425;51.102;17.208;2023-03-14T02:40:49;9.27;;;4.03;;
40695;SDS011;40425;51.102;17.208;2023-03-14T02:45:50;6.38;;;3.20;;
40695;SDS011;40425;51.102;17.208;2023-03-14T02:50:54;6.38;;;2.97;;
40695;SDS011;40425;51.102;17.208;2023-03-14T02:55:57;10.48;;;3.13;;
40695;SDS011;40425;51.102;17.208;2023-03-14T03:00:57;7.47;;;2.90;;
40695;SDS011;40425;51.102;17.208;2023-03-14T03:05:59;6.53;;;2.15;;
40695;SDS011;40425;51.102;17.208;2023-03-14T03:11:00;4.20;;;2.53;;
40695;SDS011;40425;51.102;17.208;2023-03-14T03:16:01;6.35;;;2.00;;
40695;SDS011;40425;51.102;17.208;2023-03-14T03:21:03;5.13;;;2.20;;
40695;SDS011;40425;51.102;17.208;2023-03-14T03:26:05;4.47;;;2.00;;
40695;SDS011;40425;51.102;17.208;2023-03-14T03:31:07;3.40;;;1.20;;
40695;SDS011;40425;51.102;17.208;2023-03-14T03:36:09;10.30;;;3.05;;
40695;SDS011;40425;51.102;17.208;2023-03-14T03:41:11;10.80;;;4.18;;
40695;SDS011;40425;51.102;17.208;2023-03-14T03:46:12;20.60;;;6.25;;
40695;SDS011;40425;51.102;17.208;2023-03-14T03:51:13;29.00;;;9.40;;
40695;SDS011;40425;51.102;17.208;2023-03-14T03:56:15;29.45;;;9.32;;
40695;SDS011;40425;51.102;17.208;2023-03-14T04:01:16;28.73;;;10.65;;
40695;SDS011;40425;51.102;17.208;2023-03-14T04:06:17;6.25;;;1.67;;
40695;SDS011;40425;51.102;17.208;2023-03-14T04:11:18;4.10;;;1.17;;
40695;SDS011;40425;51.102;17.208;2023-03-14T04:16:22;2.85;;;1.10;;
40695;SDS011;40425;51.102;17.208;2023-03-14T04:21:25;5.70;;;1.60;;
40695;SDS011;40425;51.102;17.208;2023-03-14T04:31:27;4.95;;;1.55;;
40695;SDS011;40425;51.102;17.208;2023-03-14T04:36:28;5.72;;;1.70;;
40695;SDS011;40425;51.102;17.208;2023-03-14T04:41:29;6.25;;;2.17;;
40695;SDS011;40425;51.102;17.208;2023-03-14T04:46:30;3.53;;;2.75;;
40695;SDS011;40425;51.102;17.208;2023-03-14T04:51:30;5.20;;;2.90;;
40695;SDS011;40425;51.102;17.208;2023-03-14T04:56:31;2.75;;;0.95;;
40695;SDS011;40425;51.102;17.208;2023-03-14T05:01:32;5.88;;;2.53;;
40695;SDS011;40425;51.102;17.208;2023-03-14T05:06:33;4.22;;;1.75;;
40695;SDS011;40425;51.102;17.208;2023-03-14T05:11:35;2.25;;;1.15;;
40695;SDS011;40425;51.102;17.208;2023-03-14T05:16:35;3.40;;;1.10;;
40695;SDS011;40425;51.102;17.208;2023-03-14T05:21:36;5.07;;;1.20;;
40695;SDS011;40425;51.102;17.208;2023-03-14T05:26:38;5.47;;;1.60;;
40695;SDS011;40425;51.102;17.208;2023-03-14T05:31:38;5.47;;;1.90;;
40695;SDS011;40425;51.102;17.208;2023-03-14T05:36:39;6.50;;;2.20;;
40695;SDS011;40425;51.102;17.208;2023-03-14T05:41:40;5.05;;;1.80;;
40695;SDS011;40425;51.102;17.208;2023-03-14T05:46:41;5.07;;;2.35;;
40695;SDS011;40425;51.102;17.208;2023-03-14T05:51:42;8.43;;;1.83;;
40695;SDS011;40425;51.102;17.208;2023-03-14T05:56:43;3.80;;;1.20;;
40695;SDS011;40425;51.102;17.208;2023-03-14T06:01:44;3.78;;;1.85;;
40695;SDS011;40425;51.102;17.208;2023-03-14T06:06:45;5.80;;;1.77;;
40695;SDS011;40425;51.102;17.208;2023-03-14T06:11:45;6.13;;;1.92;;
40695;SDS011;40425;51.102;17.208;2023-03-14T06:16:46;4.22;;;1.73;;
40695;SDS011;40425;51.102;17.208;2023-03-14T06:21:51;3.70;;;2.00;;
40695;SDS011;40425;51.102;17.208;2023-03-14T06:26:52;6.35;;;2.72;;
40695;SDS011;40425;51.102;17.208;2023-03-14T06:31:52;6.88;;;2.55;;
40695;SDS011;40425;51.102;17.208;2023-03-14T06:36:53;5.22;;;2.55;;
40695;SDS011;40425;51.102;17.208;2023-03-14T06:41:54;5.43;;;2.50;;
40695;SDS011;40425;51.102;17.208;2023-03-14T06:46:55;3.67;;;1.88;;
40695;SDS011;40425;51.102;17.208;2023-03-14T06:51:56;6.03;;;1.83;;
40695;SDS011;40425;51.102;17.208;2023-03-14T06:56:57;6.20;;;2.15;;
40695;SDS011;40425;51.102;17.208;2023-03-14T07:01:58;9.35;;;2.42;;
40695;SDS011;40425;51.102;17.208;2023-03-14T07:06:58;6.05;;;1.92;;
40695;SDS011;40425;51.102;17.208;2023-03-14T07:12:00;3.28;;;1.77;;
40695;SDS011;40425;51.102;17.208;2023-03-14T07:17:01;7.35;;;2.80;;
40695;SDS011;40425;51.102;17.208;2023-03-14T07:22:02;8.52;;;3.22;;
40695;SDS011;40425;51.102;17.208;2023-03-14T07:27:03;9.45;;;3.15;;
40695;SDS011;40425;51.102;17.208;2023-03-14T07:32:04;5.40;;;2.13;;
40695;SDS011;40425;51.102;17.208;2023-03-14T07:37:05;5.22;;;1.98;;
40695;SDS011;40425;51.102;17.208;2023-03-14T07:42:05;8.48;;;1.95;;
40695;SDS011;40425;51.102;17.208;2023-03-14T07:47:06;4.20;;;2.10;;
40695;SDS011;40425;51.102;17.208;2023-03-14T07:52:07;5.82;;;2.95;;
40695;SDS011;40425;51.102;17.208;2023-03-14T07:57:08;7.57;;;2.42;;
40695;SDS011;40425;51.102;17.208;2023-03-14T08:02:10;6.03;;;2.00;;
40695;SDS011;40425;51.102;17.208;2023-03-14T08:07:13;6.28;;;2.35;;
40695;SDS011;40425;51.102;17.208;2023-03-14T08:12:14;5.18;;;2.53;;
40695;SDS011;40425;51.102;17.208;2023-03-14T08:17:16;8.30;;;2.85;;
40695;SDS011;40425;51.102;17.208;2023-03-14T08:22:16;4.47;;;2.25;;
40695;SDS011;40425;51.102;17.208;2023-03-14T08:27:17;4.40;;;2.22;;
40695;SDS011;40425;51.102;17.208;2023-03-14T08:32:18;6.90;;;2.78;;
40695;SDS011;40425;51.102;17.208;2023-03-14T08:37:20;8.98;;;2.58;;
40695;SDS011;40425;51.102;17.208;2023-03-14T08:42:21;9.38;;;2.95;;
40695;SDS011;40425;51.102;17.208;2023-03-14T08:47:22;9.52;;;2.70;;
40695;SDS011;40425;51.102;17.208;2023-03-14T08:52:22;5.57;;;2.65;;
40695;SDS011;40425;51.102;17.208;2023-03-14T08:57:23;6.63;;;2.70;;
40695;SDS011;40425;51.102;17.208;2023-03-14T09:02:27;7.63;;;3.70;;
40695;SDS011;40425;51.102;17.208;2023-03-14T09:07:28;7.25;;;3.53;;
40695;SDS011;40425;51.102;17.208;2023-03-14T09:12:29;7.93;;;2.72;;
40695;SDS011;40425;51.102;17.208;2023-03-14T09:17:30;7.30;;;3.17;;
40695;SDS011;40425;51.102;17.208;2023-03-14T09:22:31;6.60;;;3.17;;
40695;SDS011;40425;51.102;17.208;2023-03-14T09:27:33;4.53;;;2.83;;
40695;SDS011;40425;51.102;17.208;2023-03-14T09:32:34;9.52;;;3.63;;
40695;SDS011;40425;51.102;17.208;2023-03-14T09:37:35;7.40;;;3.35;;
40695;SDS011;40425;51.102;17.208;2023-03-14T09:42:36;7.15;;;2.83;;
40695;SDS011;40425;51.102;17.208;2023-03-14T09:47:40;5.88;;;2.22;;
40695;SDS011;40425;51.102;17.208;2023-03-14T09:52:45;5.50;;;2.40;;
40695;SDS011;40425;51.102;17.208;2023-03-14T09:57:54;6.72;;;2.85;;
40695;SDS011;40425;51.102;17.208;2023-03-14T10:03:45;8.05;;;3.45;;
40695;SDS011;40425;51.102;17.208;2023-03-14T10:08:31;8.18;;;3.55;;
40695;SDS011;40425;51.102;17.208;2023-03-14T10:13:32;8.82;;;2.47;;
40695;SDS011;40425;51.102;17.208;2023-03-14T10:18:33;6.47;;;3.22;;
40695;SDS011;40425;51.102;17.208;2023-03-14T10:23:34;6.47;;;3.13;;
40695;SDS011;40425;51.102;17.208;2023-03-14T10:28:45;5.35;;;2.38;;
40695;SDS011;40425;51.102;17.208;2023-03-14T10:34:22;6.68;;;3.53;;
40695;SDS011;40425;51.102;17.208;2023-03-14T10:39:28;8.00;;;2.80;;
40695;SDS011;40425;51.102;17.208;2023-03-14T10:44:33;8.32;;;2.85;;
40695;SDS011;40425;51.102;17.208;2023-03-14T10:49:36;6.05;;;2.42;;
40695;SDS011;40425;51.102;17.208;2023-03-14T10:54:37;4.15;;;2.63;;
40695;SDS011;40425;51.102;17.208;2023-03-14T10:59:39;7.60;;;3.15;;
40695;SDS011;40425;51.102;17.208;2023-03-14T11:04:46;10.70;;;3.72;;
40695;SDS011;40425;51.102;17.208;2023-03-14T11:10:17;8.15;;;3.13;;
40695;SDS011;40425;51.102;17.208;2023-03-14T11:15:41;8.38;;;3.25;;
40695;SDS011;40425;51.102;17.208;2023-03-14T11:31:30;5.95;;;2.17;;
40695;SDS011;40425;51.102;17.208;2023-03-14T11:36:41;5.13;;;2.22;;
40695;SDS011;40425;51.102;17.208;2023-03-14T11:41:52;5.80;;;2.80;;
40695;SDS011;40425;51.102;17.208;2023-03-14T11:46:59;4.88;;;2.22;;
40695;SDS011;40425;51.102;17.208;2023-03-14T11:52:03;5.15;;;2.58;;
40695;SDS011;40425;51.102;17.208;2023-03-14T11:57:15;9.90;;;2.78;;
40695;SDS011;40425;51.102;17.208;2023-03-14T12:13:02;6.72;;;2.45;;
40695;SDS011;40425;51.102;17.208;2023-03-14T12:18:03;7.13;;;2.78;;
40695;SDS011;40425;51.102;17.208;2023-03-14T12:23:05;4.47;;;2.20;;
40695;SDS011;40425;51.102;17.208;2023-03-14T12:33:19;6.35;;;2.80;;
40695;SDS011;40425;51.102;17.208;2023-03-14T12:38:29;6.93;;;2.20;;
40695;SDS011;40425;51.102;17.208;2023-03-14T12:43:35;5.18;;;2.55;;
40695;SDS011;40425;51.102;17.208;2023-03-14T12:48:38;6.97;;;3.08;;
40695;SDS011;40425;51.102;17.208;2023-03-14T12:53:50;3.17;;;1.90;;
40695;SDS011;40425;51.102;17.208;2023-03-14T12:58:58;4.10;;;2.10;;
40695;SDS011;40425;51.102;17.208;2023-03-14T13:04:08;11.35;;;2.33;;
40695;SDS011;40425;51.102;17.208;2023-03-14T13:14:32;4.68;;;1.83;;
40695;SDS011;40425;51.102;17.208;2023-03-14T13:19:34;3.90;;;1.55;;
40695;SDS011;40425;51.102;17.208;2023-03-14T13:24:35;3.72;;;1.77;;
40695;SDS011;40425;51.102;17.208;2023-03-14T13:29:36;4.25;;;1.55;;
40695;SDS011;40425;51.102;17.208;2023-03-14T13:34:37;6.93;;;2.15;;
40695;SDS011;40425;51.102;17.208;2023-03-14T13:39:38;5.60;;;1.88;;
40695;SDS011;40425;51.102;17.208;2023-03-14T13:44:40;3.33;;;1.70;;
40695;SDS011;40425;51.102;17.208;2023-03-14T13:49:41;5.60;;;2.00;;
40695;SDS011;40425;51.102;17.208;2023-03-14T13:54:43;5.35;;;2.30;;
40695;SDS011;40425;51.102;17.208;2023-03-14T13:59:45;7.47;;;2.63;;
40695;SDS011;40425;51.102;17.208;2023-03-14T14:05:06;5.03;;;2.45;;
40695;SDS011;40425;51.102;17.208;2023-03-14T14:10:11;4.07;;;2.42;;
40695;SDS011;40425;51.102;17.208;2023-03-14T14:15:14;3.92;;;1.70;;
40695;SDS011;40425;51.102;17.208;2023-03-14T14:25:31;4.03;;;1.67;;
40695;SDS011;40425;51.102;17.208;2023-03-14T14:30:33;3.58;;;1.80;;
40695;SDS011;40425;51.102;17.208;2023-03-14T14:35:34;4.32;;;2.25;;
40695;SDS011;40425;51.102;17.208;2023-03-14T14:40:35;23.40;;;12.65;;
40695;SDS011;40425;51.102;17.208;2023-03-14T14:45:52;7.93;;;2.85;;
40695;SDS011;40425;51.102;17.208;2023-03-14T14:50:56;11.93;;;8.93;;
40695;SDS011;40425;51.102;17.208;2023-03-14T14:56:03;11.85;;;8.13;;
40695;SDS011;40425;51.102;17.208;2023-03-14T15:01:17;11.38;;;9.05;;
40695;SDS011;40425;51.102;17.208;2023-03-14T15:06:22;9.32;;;7.53;;
40695;SDS011;40425;51.102;17.208;2023-03-14T15:11:28;9.95;;;5.13;;
40695;SDS011;40425;51.102;17.208;2023-03-14T15:16:29;4.57;;;2.45;;
40695;SDS011;40425;51.102;17.208;2023-03-14T15:21:32;4.97;;;2.42;;
40695;SDS011;40425;51.102;17.208;2023-03-14T15:26:33;5.22;;;2.88;;
40695;SDS011;40425;51.102;17.208;2023-03-14T15:31:34;6.50;;;3.03;;
40695;SDS011;40425;51.102;17.208;2023-03-14T15:36:36;5.05;;;2.75;;
40695;SDS011;40425;51.102;17.208;2023-03-14T15:41:37;6.07;;;2.60;;
40695;SDS011;40425;51.102;17.208;2023-03-14T15:46:38;8.68;;;3.35;;
40695;SDS011;40425;51.102;17.208;2023-03-14T15:51:39;9.27;;;3.75;;
40695;SDS011;40425;51.102;17.208;2023-03-14T15:56:40;7.03;;;3.25;;
40695;SDS011;40425;51.102;17.208;2023-03-14T16:01:41;7.75;;;3.30;;
40695;SDS011;40425;51.102;17.208;2023-03-14T16:06:42;11.48;;;6.43;;
40695;SDS011;40425;51.102;17.208;2023-03-14T16:11:44;6.13;;;3.75;;
40695;SDS011;40425;51.102;17.208;2023-03-14T16:16:46;9.20;;;3.90;;
40695;SDS011;40425;51.102;17.208;2023-03-14T16:21:47;10.32;;;4.40;;
40695;SDS011;40425;51.102;17.208;2023-03-14T16:26:48;7.72;;;3.63;;
40695;SDS011;40425;51.102;17.208;2023-03-14T16:31:49;8.45;;;4.03;;
40695;SDS011;40425;51.102;17.208;2023-03-14T16:36:50;5.47;;;3.30;;
40695;SDS011;40425;51.102;17.208;2023-03-14T16:41:51;5.50;;;3.53;;
40695;SDS011;40425;51.102;17.208;2023-03-14T16:46:52;7.32;;;2.88;;
40695;SDS011;40425;51.102;17.208;2023-03-14T16:51:53;4.70;;;2.63;;
40695;SDS011;40425;51.102;17.208;2023-03-14T16:56:53;7.60;;;3.38;;
40695;SDS011;40425;51.102;17.208;2023-03-14T17:01:54;5.90;;;3.20;;
40695;SDS011;40425;51.102;17.208;2023-03-14T17:06:55;6.82;;;3.85;;
40695;SDS011;40425;51.102;17.208;2023-03-14T17:11:56;7.43;;;2.92;;
40695;SDS011;40425;51.102;17.208;2023-03-14T17:16:57;4.40;;;2.83;;
40695;SDS011;40425;51.102;17.208;2023-03-14T17:21:58;8.65;;;3.53;;
40695;SDS011;40425;51.102;17.208;2023-03-14T17:26:59;4.80;;;2.80;;
40695;SDS011;40425;51.102;17.208;2023-03-14T17:32:00;4.03;;;2.72;;
40695;SDS011;40425;51.102;17.208;2023-03-14T17:37:01;7.65;;;3.63;;
40695;SDS011;40425;51.102;17.208;2023-03-14T17:42:01;6.93;;;3.83;;
40695;SDS011;40425;51.102;17.208;2023-03-14T17:47:02;6.25;;;3.03;;
40695;SDS011;40425;51.102;17.208;2023-03-14T17:52:04;4.90;;;2.80;;
40695;SDS011;40425;51.102;17.208;2023-03-14T17:57:07;5.68;;;2.75;;
40695;SDS011;40425;51.102;17.208;2023-03-14T18:02:08;6.97;;;3.50;;
40695;SDS011;40425;51.102;17.208;2023-03-14T18:07:10;6.93;;;3.53;;
40695;SDS011;40425;51.102;17.208;2023-03-14T18:12:12;4.95;;;2.80;;
40695;SDS011;40425;51.102;17.208;2023-03-14T18:17:13;5.45;;;2.80;;
40695;SDS011;40425;51.102;17.208;2023-03-14T18:22:14;6.32;;;3.42;;
40695;SDS011;40425;51.102;17.208;2023-03-14T18:27:15;8.68;;;4.38;;
40695;SDS011;40425;51.102;17.208;2023-03-14T18:32:17;9.38;;;4.55;;
40695;SDS011;40425;51.102;17.208;2023-03-14T18:37:17;9.70;;;4.68;;
40695;SDS011;40425;51.102;17.208;2023-03-14T18:42:18;11.90;;;4.18;;
40695;SDS011;40425;51.102;17.208;2023-03-14T18:47:20;7.75;;;4.53;;
40695;SDS011;40425;51.102;17.208;2023-03-14T18:52:24;11.52;;;5.13;;
40695;SDS011;40425;51.102;17.208;2023-03-14T18:57:25;8.98;;;3.85;;
40695;SDS011;40425;51.102;17.208;2023-03-14T19:02:26;9.52;;;5.18;;
40695;SDS011;40425;51.102;17.208;2023-03-14T19:07:28;13.65;;;8.70;;
40695;SDS011;40425;51.102;17.208;2023-03-14T19:12:33;11.88;;;6.82;;
40695;SDS011;40425;51.102;17.208;2023-03-14T19:17:34;13.80;;;7.30;;
40695;SDS011;40425;51.102;17.208;2023-03-14T19:22:35;11.90;;;6.93;;
40695;SDS011;40425;51.102;17.208;2023-03-14T19:27:36;19.98;;;10.15;;
40695;SDS011;40425;51.102;17.208;2023-03-14T19:32:38;13.13;;;7.78;;
40695;SDS011;40425;51.102;17.208;2023-03-14T19:37:39;10.40;;;6.43;;
40695;SDS011;40425;51.102;17.208;2023-03-14T19:42:40;14.55;;;5.03;;
40695;SDS011;40425;51.102;17.208;2023-03-14T19:47:42;8.45;;;5.07;;
40695;SDS011;40425;51.102;17.208;2023-03-14T19:52:45;14.82;;;5.63;;
40695;SDS011;40425;51.102;17.208;2023-03-14T19:57:48;9.30;;;4.78;;
40695;SDS011;40425;51.102;17.208;2023-03-14T20:02:53;11.77;;;6.50;;
40695;SDS011;40425;51.102;17.208;2023-03-14T20:07:55;2.38;;;0.50;;
40695;SDS011;40425;51.102;17.208;2023-03-14T20:12:56;0.70;;;0.20;;
40695;SDS011;40425;51.102;17.208;2023-03-14T20:17:58;1.90;;;0.30;;
40695;SDS011;40425;51.102;17.208;2023-03-14T20:22:59;1.40;;;0.13;;
40695;SDS011;40425;51.102;17.208;2023-03-14T20:28:01;0.53;;;0.10;;
40695;SDS011;40425;51.102;17.208;2023-03-14T20:33:03;0.50;;;0.10;;
40695;SDS011;40425;51.102;17.208;2023-03-14T20:38:05;0.67;;;0.10;;
40695;SDS011;40425;51.102;17.208;2023-03-14T20:43:08;2.47;;;0.00;;
40695;SDS011;40425;51.102;17.208;2023-03-14T20:48:11;0.40;;;0.00;;
40695;SDS011;40425;51.102;17.208;2023-03-14T20:53:12;0.27;;;0.10;;
40695;SDS011;40425;51.102;17.208;2023-03-14T20:58:14;0.50;;;0.10;;
40695;SDS011;40425;51.102;17.208;2023-03-14T21:03:16;0.83;;;0.20;;
40695;SDS011;40425;51.102;17.208;2023-03-14T21:08:19;1.20;;;0.10;;
40695;SDS011;40425;51.102;17.208;2023-03-14T21:13:23;0.27;;;0.00;;
40695;SDS011;40425;51.102;17.208;2023-03-14T21:18:25;0.77;;;0.20;;
40695;SDS011;40425;51.102;17.208;2023-03-14T21:23:27;1.00;;;0.20;;
40695;SDS011;40425;51.102;17.208;2023-03-14T21:28:29;1.00;;;0.20;;
40695;SDS011;40425;51.102;17.208;2023-03-14T21:33:31;1.13;;;0.30;;
40695;SDS011;40425;51.102;17.208;2023-03-14T21:38:32;2.70;;;0.30;;
40695;SDS011;40425;51.102;17.208;2023-03-14T21:43:33;0.70;;;0.20;;
40695;SDS011;40425;51.102;17.208;2023-03-14T21:48:34;0.53;;;0.10;;
40695;SDS011;40425;51.102;17.208;2023-03-14T21:53:38;2.40;;;0.20;;
40695;SDS011;40425;51.102;17.208;2023-03-14T21:58:39;1.53;;;0.27;;
40695;SDS011;40425;51.102;17.208;2023-03-14T22:03:39;2.47;;;0.20;;
40695;SDS011;40425;51.102;17.208;2023-03-14T22:08:40;4.27;;;0.70;;
40695;SDS011;40425;51.102;17.208;2023-03-14T22:13:41;3.00;;;0.53;;
40695;SDS011;40425;51.102;17.208;2023-03-14T22:18:42;6.37;;;1.10;;
40695;SDS011;40425;51.102;17.208;2023-03-14T22:23:43;6.23;;;1.20;;
40695;SDS011;40425;51.102;17.208;2023-03-14T22:28:44;4.00;;;0.70;;
40695;SDS011;40425;51.102;17.208;2023-03-14T22:33:44;5.47;;;0.77;;
40695;SDS011;40425;51.102;17.208;2023-03-14T22:38:45;6.17;;;0.90;;
40695;SDS011;40425;51.102;17.208;2023-03-14T22:43:46;6.90;;;0.70;;
40695;SDS011;40425;51.102;17.208;2023-03-14T22:48:48;4.50;;;0.93;;
40695;SDS011;40425;51.102;17.208;2023-03-14T22:53:49;6.30;;;1.17;;
40695;SDS011;40425;51.102;17.208;2023-03-14T22:58:50;4.20;;;0.70;;
40695;SDS011;40425;51.102;17.208;2023-03-14T23:03:51;5.30;;;0.70;;
40695;SDS011;40425;51.102;17.208;2023-03-14T23:08:53;4.33;;;0.93;;
40695;SDS011;40425;51.102;17.208;2023-03-14T23:13:54;7.63;;;0.90;;
40695;SDS011;40425;51.102;17.208;2023-03-14T23:18:55;5.63;;;0.90;;
40695;SDS011;40425;51.102;17.208;2023-03-14T23:23:56;5.70;;;1.20;;
40695;SDS011;40425;51.102;17.208;2023-03-14T23:28:56;7.93;;;1.57;;
40695;SDS011;40425;51.102;17.208;2023-03-14T23:33:57;9.53;;;1.53;;
40695;SDS011;40425;51.102;17.208;2023-03-14T23:38:58;9.73;;;1.97;;
40695;SDS011;40425;51.102;17.208;2023-03-14T23:43:59;6.87;;;1.93;;
40695;SDS011;40425;51.102;17.208;2023-03-14T23:49:03;7.27;;;2.47;;
40695;SDS011;40425;51.102;17.208;2023-03-14T23:54:04;10.00;;;2.23;;
40695;SDS011;40425;51.102;17.208;2023-03-14T23:59:04;9.53;;;2.40;;
